Time;durP1;ratioP1;P1;durP2;ratioP2;P2;SDS_P1;SDS_P2;PMS_P1;PMS_P2;Temp;Humidity;BMP_temperature;BMP_pressure;BME280_temperature;BME280_humidity;BME280_pressure;Samples;Min_cycle;Max_cycle;Signal;HPM_P1;HPM_P2
2021/03/16 00:00:43;;;;;;;;;;;15.20;57.20;;;;;;4917717;29;20381;-56
2021/03/16 00:03:08;;;;;;;;;;;15.90;57.60;;;;;;4917719;29;19959;-55
2021/03/16 00:05:34;;;;;;;;;;;15.30;57.30;;;;;;4918090;28;20259;-56
2021/03/16 00:07:59;;;;;;;;;;;15.20;57.20;;;;;;4917344;29;19937;-57
2021/03/16 00:10:25;;;;;;;;;;;15.20;57.20;;;;;;4917714;29;19907;-56
2021/03/16 00:12:50;;;;;;;;;;;15.20;57.30;;;;;;4900277;29;19918;-56
2021/03/16 00:15:16;;;;;;;;;;;15.20;57.30;;;;;;4917537;29;19918;-56
2021/03/16 00:17:42;;;;;;;;;;;15.10;57.30;;;;;;4917254;29;19911;-56
2021/03/16 00:20:07;;;;;;;;;;;15.20;57.30;;;;;;4917083;29;19907;-54
2021/03/16 00:22:33;;;;;;;;;;;15.20;57.40;;;;;;4917288;29;19922;-56
2021/03/16 00:24:58;;;;;;;;;;;15.20;57.40;;;;;;4916977;29;20417;-55
2021/03/16 00:27:24;;;;;;;;;;;15.10;57.30;;;;;;4900099;29;19942;-56
2021/03/16 00:29:49;;;;;;;;;;;15.10;57.40;;;;;;4916934;29;19918;-56
2021/03/16 00:32:15;;;;;;;;;;;15.10;57.40;;;;;;4916959;29;19907;-56
2021/03/16 00:34:40;;;;;;;;;;;15.10;57.40;;;;;;4916896;29;19914;-55
2021/03/16 00:37:06;;;;;;;;;;;15.00;57.40;;;;;;4916874;29;19907;-56
2021/03/16 00:39:31;;;;;;;;;;;15.10;57.50;;;;;;4899823;29;19918;-55
2021/03/16 00:41:57;;;;;;;;;;;15.10;57.50;;;;;;4899641;29;19918;-56
2021/03/16 00:44:22;;;;;;;;;;;15.10;57.50;;;;;;4917021;29;19907;-56
2021/03/16 00:46:48;;;;;;;;;;;15.00;57.50;;;;;;4916961;29;20362;-56
2021/03/16 00:49:13;;;;;;;;;;;15.10;57.50;;;;;;4916589;29;19907;-55
2021/03/16 00:51:39;;;;;;;;;;;15.10;57.50;;;;;;4917007;29;19907;-56
2021/03/16 00:54:04;;;;;;;;;;;15.00;57.50;;;;;;4916552;29;20377;-56
2021/03/16 00:56:30;;;;;;;;;;;15.00;57.50;;;;;;4916530;29;19926;-56
2021/03/16 00:58:55;;;;;;;;;;;15.00;57.50;;;;;;4916780;29;20001;-56
2021/03/16 01:01:21;;;;;;;;;;;15.00;57.60;;;;;;4916494;29;19915;-57
2021/03/16 01:03:46;;;;;;;;;;;14.90;57.50;;;;;;4916527;29;19911;-56
2021/03/16 01:06:12;;;;;;;;;;;14.90;57.60;;;;;;4916936;29;20282;-55
2021/03/16 01:08:37;;;;;;;;;;;15.00;57.60;;;;;;4916720;29;20038;-56
2021/03/16 01:11:03;;;;;;;;;;;15.00;57.60;;;;;;4916700;29;19958;-56
2021/03/16 01:13:29;;;;;;;;;;;15.00;57.70;;;;;;4916321;29;19942;-56
2021/03/16 01:15:54;;;;;;;;;;;14.90;57.60;;;;;;4916681;29;19907;-56
2021/03/16 01:18:20;;;;;;;;;;;14.90;57.70;;;;;;4916581;29;19933;-56
2021/03/16 01:20:45;;;;;;;;;;;14.80;57.60;;;;;;4916127;29;20358;-56
2021/03/16 01:23:11;;;;;;;;;;;14.80;57.60;;;;;;4916560;29;19966;-55
2021/03/16 01:25:36;;;;;;;;;;;14.70;58.20;;;;;;4916507;29;19911;-56
2021/03/16 01:28:02;;;;;;;;;;;14.80;57.60;;;;;;4916177;29;19978;-56
2021/03/16 01:30:28;;;;;;;;;;;14.90;57.70;;;;;;4916345;29;19907;-56
2021/03/16 01:32:53;;;;;;;;;;;14.90;57.70;;;;;;4916398;29;19907;-54
2021/03/16 01:35:19;;;;;;;;;;;14.90;57.70;;;;;;4916015;29;19914;-56
2021/03/16 01:37:45;;;;;;;;;;;14.90;57.70;;;;;;4915658;29;19955;-56
2021/03/16 01:40:14;;;;;;;;;;;14.90;57.80;;;;;;4916027;29;19919;-55
2021/03/16 01:42:40;;;;;;;;;;;14.90;57.70;;;;;;4916096;29;19947;-56
2021/03/16 01:45:10;;;;;;;;;;;14.80;57.70;;;;;;4916221;29;20024;-56
2021/03/16 01:47:36;;;;;;;;;;;14.80;57.70;;;;;;4915880;29;19908;-56
2021/03/16 01:50:04;;;;;;;;;;;14.80;58.40;;;;;;4915959;29;19918;-56
2021/03/16 01:52:30;;;;;;;;;;;14.80;57.70;;;;;;4916166;29;19907;-56
2021/03/16 01:54:55;;;;;;;;;;;14.80;57.80;;;;;;4915864;29;19934;-56
2021/03/16 01:57:22;;;;;;;;;;;14.70;57.70;;;;;;4915842;29;20013;-55
2021/03/16 01:59:48;;;;;;;;;;;14.80;57.80;;;;;;4915839;29;19911;-55
2021/03/16 02:02:13;;;;;;;;;;;14.80;57.80;;;;;;4915966;29;19919;-56
2021/03/16 02:04:39;;;;;;;;;;;14.80;57.90;;;;;;4899082;29;19907;-55
2021/03/16 02:07:25;;;;;;;;;;;14.70;57.80;;;;;;4916491;28;19919;-56
2021/03/16 02:09:56;;;;;;;;;;;14.80;57.80;;;;;;4916082;29;19918;-56
2021/03/16 02:12:28;;;;;;;;;;;14.70;57.90;;;;;;4915801;29;19918;-56
2021/03/16 02:14:56;;;;;;;;;;;14.80;57.80;;;;;;4915792;29;20374;-56
2021/03/16 02:17:29;;;;;;;;;;;14.60;57.80;;;;;;4915929;29;20049;-56
2021/03/16 02:19:54;;;;;;;;;;;14.70;57.80;;;;;;4915437;29;20018;-56
2021/03/16 02:22:20;;;;;;;;;;;14.70;57.90;;;;;;4915650;29;20017;-56
2021/03/16 02:25:06;;;;;;;;;;;14.70;57.90;;;;;;4915706;29;19956;-56
2021/03/16 02:27:48;;;;;;;;;;;14.70;57.80;;;;;;4915733;29;20006;-56
2021/03/16 02:30:14;;;;;;;;;;;14.70;57.80;;;;;;4915978;29;19922;-56
2021/03/16 02:32:40;;;;;;;;;;;14.70;57.90;;;;;;4915579;29;19911;-56
2021/03/16 02:35:06;;;;;;;;;;;14.60;57.90;;;;;;4915565;29;19955;-56
2021/03/16 02:37:33;;;;;;;;;;;14.70;58.00;;;;;;4915655;29;19911;-56
2021/03/16 02:39:59;;;;;;;;;;;14.60;57.90;;;;;;4915661;29;19915;-55
2021/03/16 02:42:26;;;;;;;;;;;14.60;57.90;;;;;;4915525;29;19919;-56
2021/03/16 02:44:52;;;;;;;;;;;14.70;58.00;;;;;;4915568;29;19997;-57
2021/03/16 02:47:21;;;;;;;;;;;14.60;58.00;;;;;;4915561;29;19998;-56
2021/03/16 02:49:47;;;;;;;;;;;14.60;57.90;;;;;;4917273;29;20318;-55
2021/03/16 02:52:14;;;;;;;;;;;14.60;58.00;;;;;;4919163;29;20501;-57
2021/03/16 02:54:39;;;;;;;;;;;14.40;57.90;;;;;;4918957;29;19911;-55
2021/03/16 02:57:06;;;;;;;;;;;14.50;58.00;;;;;;4918980;29;19986;-56
2021/03/16 02:59:32;;;;;;;;;;;14.60;58.00;;;;;;4918575;29;19907;-56
2021/03/16 03:01:57;;;;;;;;;;;14.60;58.10;;;;;;4918837;29;20057;-56
2021/03/16 03:04:24;;;;;;;;;;;14.40;58.00;;;;;;4918866;29;19929;-55
2021/03/16 03:06:50;;;;;;;;;;;14.50;58.00;;;;;;4919143;28;19919;-56
2021/03/16 03:09:16;;;;;;;;;;;14.60;58.10;;;;;;4918746;29;19908;-54
2021/03/16 03:11:41;;;;;;;;;;;14.50;58.10;;;;;;4918749;29;19907;-56
2021/03/16 03:14:08;;;;;;;;;;;14.50;58.10;;;;;;4901492;29;19938;-55
2021/03/16 03:16:33;;;;;;;;;;;14.60;58.10;;;;;;4918359;29;19954;-56
2021/03/16 03:18:59;;;;;;;;;;;14.50;58.10;;;;;;4918500;29;19949;-56
2021/03/16 03:21:26;;;;;;;;;;;14.70;58.20;;;;;;4918300;29;19939;-56
2021/03/16 03:23:56;;;;;;;;;;;14.50;58.10;;;;;;4918238;29;19907;-55
2021/03/16 03:26:24;;;;;;;;;;;14.50;58.10;;;;;;4918360;29;19907;-57
2021/03/16 03:28:50;;;;;;;;;;;14.30;58.10;;;;;;4918323;29;20166;-56
2021/03/16 03:31:16;;;;;;;;;;;14.50;58.20;;;;;;4918558;29;19908;-53
2021/03/16 03:33:42;;;;;;;;;;;14.80;58.40;;;;;;4918153;29;20358;-56
2021/03/16 03:36:08;;;;;;;;;;;14.40;58.20;;;;;;4918601;29;20004;-56
2021/03/16 03:38:34;;;;;;;;;;;14.40;58.20;;;;;;4918042;29;19907;-55
2021/03/16 03:41:01;;;;;;;;;;;14.40;58.20;;;;;;4918072;29;19915;-56
2021/03/16 03:43:27;;;;;;;;;;;14.50;58.20;;;;;;4918194;29;19907;-56
2021/03/16 03:45:54;;;;;;;;;;;14.40;58.20;;;;;;4918012;29;19989;-56
2021/03/16 03:48:21;;;;;;;;;;;14.40;58.30;;;;;;4917952;29;19907;-56
2021/03/16 03:50:49;;;;;;;;;;;14.40;58.20;;;;;;4918146;29;20382;-56
2021/03/16 03:53:16;;;;;;;;;;;14.20;58.20;;;;;;4918124;29;19907;-56
2021/03/16 03:55:42;;;;;;;;;;;14.40;58.30;;;;;;4918087;29;19966;-56
2021/03/16 03:58:08;;;;;;;;;;;14.20;58.20;;;;;;4917685;29;19933;-56
2021/03/16 04:00:34;;;;;;;;;;;14.20;58.20;;;;;;4917157;29;19907;-56
2021/03/16 04:03:00;;;;;;;;;;;14.40;58.40;;;;;;4917473;29;19927;-56
2021/03/16 04:05:26;;;;;;;;;;;15.10;58.70;;;;;;4917541;29;19911;-55
2021/03/16 04:07:52;;;;;;;;;;;14.40;58.30;;;;;;4918183;28;19919;-56
2021/03/16 04:10:17;;;;;;;;;;;14.30;58.30;;;;;;4917575;29;19918;-54
2021/03/16 04:12:43;;;;;;;;;;;14.30;58.30;;;;;;4917541;29;20001;-56
2021/03/16 04:15:09;;;;;;;;;;;14.40;58.40;;;;;;4917379;29;20029;-56
2021/03/16 04:17:35;;;;;;;;;;;14.40;58.40;;;;;;4917573;29;19907;-56
2021/03/16 04:20:02;;;;;;;;;;;14.30;58.40;;;;;;4917453;29;19915;-56
2021/03/16 04:22:28;;;;;;;;;;;14.50;58.50;;;;;;4916959;29;20361;-56
2021/03/16 04:24:55;;;;;;;;;;;14.10;58.30;;;;;;4917459;29;19944;-56
2021/03/16 04:27:21;;;;;;;;;;;14.30;58.50;;;;;;4900130;29;19911;-56
2021/03/16 04:29:46;;;;;;;;;;;14.30;58.40;;;;;;4917140;29;20381;-55
2021/03/16 04:32:12;;;;;;;;;;;14.30;58.50;;;;;;4900069;29;19910;-56
2021/03/16 04:34:37;;;;;;;;;;;14.30;58.50;;;;;;4917040;29;19910;-55
2021/03/16 04:37:03;;;;;;;;;;;14.30;58.50;;;;;;4917114;29;20263;-55
2021/03/16 04:39:28;;;;;;;;;;;14.20;58.40;;;;;;4917049;29;20569;-56
2021/03/16 04:41:54;;;;;;;;;;;14.30;58.50;;;;;;4917212;29;19915;-56
2021/03/16 04:44:19;;;;;;;;;;;14.10;58.40;;;;;;4916840;29;20010;-56
2021/03/16 04:46:45;;;;;;;;;;;14.30;58.50;;;;;;4916975;29;19907;-56
2021/03/16 04:49:10;;;;;;;;;;;14.30;58.50;;;;;;4916879;29;20044;-56
2021/03/16 04:51:36;;;;;;;;;;;14.30;58.50;;;;;;4917093;29;19907;-56
2021/03/16 04:54:01;;;;;;;;;;;14.30;58.50;;;;;;4916854;29;20006;-56
2021/03/16 04:56:27;;;;;;;;;;;14.30;58.60;;;;;;4916836;29;20388;-57
2021/03/16 04:58:52;;;;;;;;;;;14.10;58.50;;;;;;4916680;29;19918;-55
2021/03/16 05:01:25;;;;;;;;;;;14.10;58.50;;;;;;4916663;29;20021;-56
2021/03/16 05:03:50;;;;;;;;;;;14.20;58.60;;;;;;4916680;29;20088;-56
2021/03/16 05:06:28;;;;;;;;;;;14.20;58.60;;;;;;4917061;29;19978;-56
2021/03/16 05:08:55;;;;;;;;;;;14.20;58.50;;;;;;4916499;29;19911;-55
2021/03/16 05:11:21;;;;;;;;;;;14.30;58.60;;;;;;4916019;29;19911;-56
2021/03/16 05:13:46;;;;;;;;;;;14.20;58.60;;;;;;4916337;29;19955;-56
2021/03/16 05:16:12;;;;;;;;;;;14.10;58.60;;;;;;4916632;29;20373;-57
2021/03/16 05:18:37;;;;;;;;;;;14.20;58.70;;;;;;4916601;29;19911;-54
2021/03/16 05:21:03;;;;;;;;;;;14.20;58.70;;;;;;4916672;29;19922;-56
2021/03/16 05:23:29;;;;;;;;;;;14.20;58.60;;;;;;4916481;29;19907;-56
2021/03/16 05:25:54;;;;;;;;;;;14.20;58.70;;;;;;4899451;29;19914;-56
2021/03/16 05:28:20;;;;;;;;;;;14.10;58.60;;;;;;4916684;29;20006;-56
2021/03/16 05:30:45;;;;;;;;;;;13.90;58.50;;;;;;4916289;29;20272;-56
2021/03/16 05:33:11;;;;;;;;;;;14.00;58.60;;;;;;4916552;29;20351;-55
2021/03/16 05:35:36;;;;;;;;;;;14.20;58.70;;;;;;4916404;29;19907;-56
2021/03/16 05:38:02;;;;;;;;;;;14.10;58.60;;;;;;4916435;29;19911;-55
2021/03/16 05:40:29;;;;;;;;;;;14.10;58.60;;;;;;4916551;29;19933;-56
2021/03/16 05:42:56;;;;;;;;;;;14.10;58.60;;;;;;4916219;29;19959;-56
2021/03/16 05:45:22;;;;;;;;;;;14.10;58.60;;;;;;4916180;29;19907;-56
2021/03/16 05:47:48;;;;;;;;;;;14.20;58.70;;;;;;4916193;29;19911;-55
2021/03/16 05:50:14;;;;;;;;;;;14.20;58.70;;;;;;4916071;29;19907;-56
2021/03/16 05:52:40;;;;;;;;;;;14.10;58.20;;;;;;4916236;29;20432;-56
2021/03/16 05:55:07;;;;;;;;;;;14.20;58.70;;;;;;4898950;29;20382;-56
2021/03/16 05:57:33;;;;;;;;;;;14.20;58.70;;;;;;4916209;29;19954;-56
2021/03/16 05:59:58;;;;;;;;;;;14.10;58.70;;;;;;4915863;29;19913;-55
2021/03/16 06:02:24;;;;;;;;;;;14.10;58.70;;;;;;4916066;29;20010;-56
2021/03/16 06:04:50;;;;;;;;;;;14.10;58.80;;;;;;4915918;29;19911;-56
2021/03/16 06:07:15;;;;;;;;;;;14.00;59.10;;;;;;4916370;29;20289;-56
2021/03/16 06:09:41;;;;;;;;;;;14.20;59.10;;;;;;4916043;29;19907;-56
2021/03/16 06:12:08;;;;;;;;;;;14.00;59.00;;;;;;4915708;29;19950;-56
2021/03/16 06:14:34;;;;;;;;;;;14.30;59.10;;;;;;4916045;29;19907;-57
2021/03/16 06:17:00;;;;;;;;;;;14.20;59.10;;;;;;4915882;29;19914;-56
2021/03/16 06:19:30;;;;;;;;;;;14.20;59.20;;;;;;4915931;29;20009;-56
2021/03/16 06:22:00;;;;;;;;;;;14.40;59.20;;;;;;4915664;29;20025;-56
2021/03/16 06:24:25;;;;;;;;;;;14.50;59.10;;;;;;4918562;29;19914;-56
2021/03/16 06:26:51;;;;;;;;;;;14.30;58.90;;;;;;4919014;29;19907;-56
2021/03/16 06:29:16;;;;;;;;;;;14.50;59.00;;;;;;4918714;29;19914;-56
2021/03/16 06:31:42;;;;;;;;;;;14.50;59.00;;;;;;4919216;29;20356;-56
2021/03/16 06:34:17;;;;;;;;;;;14.60;59.00;;;;;;4919136;29;19911;-55
2021/03/16 06:36:42;;;;;;;;;;;14.50;58.90;;;;;;4919141;29;19939;-55
2021/03/16 06:39:15;;;;;;;;;;;14.60;58.90;;;;;;4919247;29;20005;-56
2021/03/16 06:41:41;;;;;;;;;;;14.60;58.80;;;;;;4919027;29;19922;-56
2021/03/16 06:44:06;;;;;;;;;;;14.80;59.00;;;;;;4918976;29;20625;-55
2021/03/16 06:46:33;;;;;;;;;;;14.50;58.80;;;;;;4918937;29;19911;-56
2021/03/16 06:48:59;;;;;;;;;;;14.50;58.70;;;;;;4917963;29;19941;-54
2021/03/16 06:51:26;;;;;;;;;;;14.70;58.90;;;;;;4918985;29;20404;-54
2021/03/16 06:53:52;;;;;;;;;;;14.70;58.80;;;;;;4916960;29;19911;-54
2021/03/16 06:56:27;;;;;;;;;;;14.70;58.70;;;;;;4917123;29;20006;-55
2021/03/16 06:58:53;;;;;;;;;;;14.70;58.60;;;;;;4916847;29;20476;-53
2021/03/16 07:01:18;;;;;;;;;;;14.70;58.70;;;;;;4917176;29;20018;-55
2021/03/16 07:03:45;;;;;;;;;;;14.70;59.00;;;;;;4900087;29;20393;-57
2021/03/16 07:06:12;;;;;;;;;;;14.70;58.60;;;;;;4917232;29;19918;-57
2021/03/16 07:08:38;;;;;;;;;;;14.90;58.80;;;;;;4918565;28;19954;-55
2021/03/16 07:11:05;;;;;;;;;;;14.60;58.50;;;;;;4918260;29;19913;-54
2021/03/16 07:13:31;;;;;;;;;;;15.40;58.90;;;;;;4917534;29;19911;-50
2021/03/16 07:15:57;;;;;;;;;;;14.80;58.50;;;;;;4918504;29;19911;-50
2021/03/16 07:18:22;;;;;;;;;;;15.00;58.90;;;;;;4918512;29;20029;-56
2021/03/16 07:20:58;;;;;;;;;;;15.00;58.90;;;;;;4901317;29;19911;-56
2021/03/16 07:23:25;;;;;;;;;;;15.00;58.90;;;;;;4901340;29;19911;-54
2021/03/16 07:25:51;;;;;;;;;;;15.00;58.90;;;;;;4918543;29;19918;-56
2021/03/16 07:28:18;;;;;;;;;;;15.70;59.30;;;;;;4917931;29;19907;-55
2021/03/16 07:30:43;;;;;;;;;;;14.90;58.90;;;;;;4917493;29;19917;-56
2021/03/16 07:33:11;;;;;;;;;;;14.80;58.90;;;;;;4917258;29;19907;-56
2021/03/16 07:35:36;;;;;;;;;;;14.90;58.90;;;;;;4899524;29;20373;-56
2021/03/16 07:38:02;;;;;;;;;;;14.90;59.00;;;;;;4917480;29;19917;-55
2021/03/16 07:40:28;;;;;;;;;;;14.70;58.90;;;;;;4917403;29;19915;-53
2021/03/16 07:42:53;;;;;;;;;;;14.80;59.00;;;;;;4900419;29;19921;-56
2021/03/16 07:45:23;;;;;;;;;;;14.80;59.00;;;;;;4917661;29;19994;-56
2021/03/16 07:47:48;;;;;;;;;;;14.80;58.80;;;;;;4900535;29;19907;-55
2021/03/16 07:50:14;;;;;;;;;;;14.70;58.80;;;;;;4917842;29;20389;-56
2021/03/16 07:52:46;;;;;;;;;;;14.80;58.80;;;;;;4917881;29;19915;-55
2021/03/16 07:55:31;;;;;;;;;;;14.80;58.80;;;;;;4917590;29;19978;-55
2021/03/16 07:58:07;;;;;;;;;;;14.80;58.80;;;;;;4916602;29;19946;-55
2021/03/16 08:00:32;;;;;;;;;;;14.80;58.80;;;;;;4916629;29;20289;-55
2021/03/16 08:03:02;;;;;;;;;;;14.60;58.80;;;;;;4916583;29;20006;-56
2021/03/16 08:05:38;;;;;;;;;;;14.80;58.70;;;;;;4900660;29;20030;-55
2021/03/16 08:08:16;;;;;;;;;;;14.80;58.90;;;;;;4918090;28;19923;-56
2021/03/16 08:10:42;;;;;;;;;;;14.80;58.80;;;;;;4917345;29;20406;-56
2021/03/16 08:13:11;;;;;;;;;;;14.70;58.80;;;;;;4917371;29;19910;-55
2021/03/16 08:15:40;;;;;;;;;;;14.70;58.80;;;;;;4917645;29;19910;-55
2021/03/16 08:18:07;;;;;;;;;;;14.80;58.80;;;;;;4917752;29;19907;-56
2021/03/16 08:20:32;;;;;;;;;;;15.00;58.90;;;;;;4917665;29;20251;-56
2021/03/16 08:23:08;;;;;;;;;;;14.80;58.80;;;;;;4917247;29;19926;-55
2021/03/16 08:25:33;;;;;;;;;;;14.80;58.80;;;;;;4915662;29;19907;-54
2021/03/16 08:28:06;;;;;;;;;;;14.80;58.80;;;;;;4916618;29;20031;-55
2021/03/16 08:30:32;;;;;;;;;;;14.80;58.70;;;;;;4917027;29;19997;-53
2021/03/16 08:32:58;;;;;;;;;;;14.80;58.80;;;;;;4917240;29;19915;-55
2021/03/16 08:35:23;;;;;;;;;;;14.80;58.90;;;;;;4917002;29;19914;-54
2021/03/16 08:37:52;;;;;;;;;;;14.80;58.90;;;;;;4917149;29;19906;-54
2021/03/16 08:40:23;;;;;;;;;;;14.80;58.80;;;;;;4917157;29;20316;-53
2021/03/16 08:42:49;;;;;;;;;;;14.80;58.80;;;;;;4916847;29;19915;-55
2021/03/16 08:45:15;;;;;;;;;;;14.70;58.80;;;;;;4917252;29;20403;-54
2021/03/16 08:47:41;;;;;;;;;;;14.80;58.90;;;;;;4916700;29;20361;-55
2021/03/16 08:50:06;;;;;;;;;;;14.70;58.80;;;;;;4917364;29;19994;-55
2021/03/16 08:52:32;;;;;;;;;;;14.80;58.80;;;;;;4916936;29;19908;-55
2021/03/16 08:54:58;;;;;;;;;;;15.20;59.00;;;;;;4917439;29;19911;-55
2021/03/16 08:57:35;;;;;;;;;;;15.20;59.00;;;;;;4916605;29;19907;-55
2021/03/16 09:00:03;;;;;;;;;;;14.70;58.70;;;;;;4916566;29;19915;-55
2021/03/16 09:02:29;;;;;;;;;;;14.70;58.70;;;;;;4916504;29;19919;-56
2021/03/16 09:04:56;;;;;;;;;;;14.70;58.70;;;;;;4916430;29;19939;-53
2021/03/16 09:07:22;;;;;;;;;;;14.70;58.80;;;;;;4917246;28;20025;-54
2021/03/16 09:09:48;;;;;;;;;;;14.70;58.70;;;;;;4916383;29;19958;-53
2021/03/16 09:12:24;;;;;;;;;;;14.70;58.70;;;;;;4916513;29;19935;-54
2021/03/16 09:14:50;;;;;;;;;;;14.70;58.60;;;;;;4916219;29;19946;-55
2021/03/16 09:17:16;;;;;;;;;;;14.50;58.60;;;;;;4916446;29;19950;-55
2021/03/16 09:19:41;;;;;;;;;;;14.50;58.60;;;;;;4916437;29;19938;-52
2021/03/16 09:22:10;;;;;;;;;;;14.60;58.70;;;;;;4916454;29;19969;-53
2021/03/16 09:24:40;;;;;;;;;;;14.60;58.70;;;;;;4899096;29;19942;-55
2021/03/16 09:27:06;;;;;;;;;;;14.60;58.60;;;;;;4916196;29;19913;-53
2021/03/16 09:29:36;;;;;;;;;;;14.60;58.40;;;;;;4915975;29;20025;-54
2021/03/16 09:32:10;;;;;;;;;;;14.60;58.30;;;;;;4916376;29;20273;-53
2021/03/16 09:34:36;;;;;;;;;;;14.60;58.20;;;;;;4899511;29;20002;-55
2021/03/16 09:37:02;;;;;;;;;;;14.60;58.20;;;;;;4916043;29;20318;-56
2021/03/16 09:39:28;;;;;;;;;;;14.60;58.00;;;;;;4915912;29;19930;-53
2021/03/16 09:41:55;;;;;;;;;;;14.50;58.10;;;;;;4915991;29;19965;-54
2021/03/16 09:44:37;;;;;;;;;;;14.60;58.20;;;;;;4915749;29;19911;-56
2021/03/16 09:47:03;;;;;;;;;;;14.60;58.00;;;;;;4916290;29;20259;-55
2021/03/16 09:49:29;;;;;;;;;;;14.40;58.20;;;;;;4915724;29;19958;-55
2021/03/16 09:51:59;;;;;;;;;;;14.50;58.40;;;;;;4915667;29;19911;-55
2021/03/16 09:54:25;;;;;;;;;;;14.70;58.50;;;;;;4915952;29;19914;-54
2021/03/16 09:56:51;;;;;;;;;;;14.50;58.50;;;;;;4915223;29;19911;-55
2021/03/16 09:59:17;;;;;;;;;;;14.50;58.50;;;;;;4918543;29;19939;-55
2021/03/16 10:01:44;;;;;;;;;;;14.40;58.40;;;;;;4919663;29;19966;-53
2021/03/16 10:04:11;;;;;;;;;;;14.50;58.60;;;;;;4919708;29;19937;-55
2021/03/16 10:06:38;;;;;;;;;;;14.50;58.50;;;;;;4902905;28;20409;-55
2021/03/16 10:09:14;;;;;;;;;;;14.50;58.40;;;;;;4919436;29;20073;-55
2021/03/16 10:11:39;;;;;;;;;;;14.50;58.40;;;;;;4919501;29;19907;-55
2021/03/16 10:14:05;;;;;;;;;;;14.30;58.40;;;;;;4919859;29;20373;-55
2021/03/16 10:16:31;;;;;;;;;;;14.40;58.30;;;;;;4919790;29;20362;-55
2021/03/16 10:18:56;;;;;;;;;;;14.50;58.30;;;;;;4919490;29;19915;-54
2021/03/16 10:21:31;;;;;;;;;;;14.60;58.40;;;;;;4919827;29;19915;-55
2021/03/16 10:23:57;;;;;;;;;;;14.50;58.40;;;;;;4919461;29;20290;-55
2021/03/16 10:26:23;;;;;;;;;;;14.90;58.60;;;;;;4919585;29;20281;-56
2021/03/16 10:28:48;;;;;;;;;;;14.40;58.50;;;;;;4919206;29;20002;-55
2021/03/16 10:31:15;;;;;;;;;;;14.40;58.60;;;;;;4919268;29;19991;-55
2021/03/16 10:33:41;;;;;;;;;;;14.60;58.60;;;;;;4919429;29;19911;-53
2021/03/16 10:36:06;;;;;;;;;;;14.60;58.60;;;;;;4919361;29;20324;-52
2021/03/16 10:38:32;;;;;;;;;;;14.60;58.50;;;;;;4902135;29;19911;-55
2021/03/16 10:40:57;;;;;;;;;;;14.70;58.50;;;;;;4901933;29;19961;-55
2021/03/16 10:43:23;;;;;;;;;;;14.50;58.30;;;;;;4919112;29;19918;-53
2021/03/16 10:45:48;;;;;;;;;;;14.70;58.30;;;;;;4919151;29;19907;-54
2021/03/16 10:48:14;;;;;;;;;;;14.70;58.20;;;;;;4919106;29;19945;-55
2021/03/16 10:50:39;;;;;;;;;;;14.70;58.20;;;;;;4919106;29;19918;-55
2021/03/16 10:53:05;;;;;;;;;;;14.70;58.00;;;;;;4919117;29;19907;-55
2021/03/16 10:55:30;;;;;;;;;;;14.90;58.00;;;;;;4918812;29;19933;-55
2021/03/16 10:57:56;;;;;;;;;;;15.00;58.00;;;;;;4918684;29;19913;-55
2021/03/16 11:00:21;;;;;;;;;;;15.00;57.90;;;;;;4918721;29;19922;-52
2021/03/16 11:02:47;;;;;;;;;;;15.10;57.80;;;;;;4918756;29;19915;-56
2021/03/16 11:05:12;;;;;;;;;;;15.00;57.70;;;;;;4918481;29;20414;-55
2021/03/16 11:07:38;;;;;;;;;;;15.10;57.70;;;;;;4919119;28;19922;-55
2021/03/16 11:10:04;;;;;;;;;;;14.80;57.50;;;;;;4917436;29;20346;-55
2021/03/16 11:12:30;;;;;;;;;;;15.10;57.60;;;;;;4917941;29;20285;-55
2021/03/16 11:14:55;;;;;;;;;;;15.00;57.60;;;;;;4917012;29;20003;-54
2021/03/16 11:17:21;;;;;;;;;;;15.00;57.70;;;;;;4918047;29;20409;-55
2021/03/16 11:19:46;;;;;;;;;;;15.00;57.80;;;;;;4918458;29;19907;-55
2021/03/16 11:22:12;;;;;;;;;;;14.90;57.80;;;;;;4901143;29;20358;-55
2021/03/16 11:24:37;;;;;;;;;;;14.70;57.80;;;;;;4918117;29;19998;-55
2021/03/16 11:27:03;;;;;;;;;;;14.90;58.00;;;;;;4918444;29;19911;-55
2021/03/16 11:29:28;;;;;;;;;;;14.90;58.00;;;;;;4918184;29;20282;-56
2021/03/16 11:31:54;;;;;;;;;;;14.90;58.00;;;;;;4917978;29;19907;-55
2021/03/16 11:34:19;;;;;;;;;;;14.90;58.10;;;;;;4900974;29;19907;-55
2021/03/16 11:36:45;;;;;;;;;;;14.90;58.00;;;;;;4901056;29;20417;-56
2021/03/16 11:39:10;;;;;;;;;;;14.90;58.10;;;;;;4918157;29;19911;-56
2021/03/16 11:41:36;;;;;;;;;;;14.80;58.00;;;;;;4917821;29;19915;-56
2021/03/16 11:44:01;;;;;;;;;;;14.90;58.10;;;;;;4918021;29;19962;-55
2021/03/16 11:46:27;;;;;;;;;;;14.80;58.00;;;;;;4900668;29;19911;-55
2021/03/16 11:48:52;;;;;;;;;;;14.80;58.00;;;;;;4917784;29;19933;-55
2021/03/16 11:51:18;;;;;;;;;;;14.80;58.10;;;;;;4917680;29;20370;-56
2021/03/16 11:53:43;;;;;;;;;;;14.80;58.10;;;;;;4917748;29;19911;-56
2021/03/16 11:56:09;;;;;;;;;;;14.80;58.00;;;;;;4900921;29;20322;-53
2021/03/16 11:58:34;;;;;;;;;;;14.80;58.10;;;;;;4917342;29;20358;-56
2021/03/16 12:01:01;;;;;;;;;;;14.80;58.10;;;;;;4917707;29;19911;-56
2021/03/16 12:03:26;;;;;;;;;;;14.70;58.10;;;;;;4917441;29;20373;-54
2021/03/16 12:05:52;;;;;;;;;;;14.70;58.10;;;;;;4900503;29;20009;-56
2021/03/16 12:08:17;;;;;;;;;;;14.70;58.20;;;;;;4918046;28;19919;-54
2021/03/16 12:10:43;;;;;;;;;;;14.70;58.20;;;;;;4917630;29;19910;-56
2021/03/16 12:13:09;;;;;;;;;;;14.30;58.00;;;;;;4917385;29;19918;-53
2021/03/16 12:15:34;;;;;;;;;;;14.60;58.10;;;;;;4917379;29;20005;-55
2021/03/16 12:18:00;;;;;;;;;;;14.60;58.20;;;;;;4900347;29;19911;-55
2021/03/16 12:20:25;;;;;;;;;;;14.60;58.10;;;;;;4916976;29;20029;-56
2021/03/16 12:22:51;;;;;;;;;;;14.30;57.80;;;;;;4917067;29;20054;-55
2021/03/16 12:25:16;;;;;;;;;;;14.60;57.80;;;;;;4917466;29;19907;-55
2021/03/16 12:27:42;;;;;;;;;;;14.60;57.80;;;;;;4917055;29;19907;-55
2021/03/16 12:30:07;;;;;;;;;;;14.60;58.00;;;;;;4916993;29;20001;-56
2021/03/16 12:32:38;;;;;;;;;;;14.60;57.80;;;;;;4917364;29;19911;-55
2021/03/16 12:35:04;;;;;;;;;;;14.50;57.90;;;;;;4917536;29;19947;-55
2021/03/16 12:37:30;;;;;;;;;;;14.60;58.00;;;;;;4899766;29;20425;-55
2021/03/16 12:39:56;;;;;;;;;;;14.10;57.90;;;;;;4916822;29;19907;-55
2021/03/16 12:42:21;;;;;;;;;;;14.50;58.10;;;;;;4916828;29;20365;-55
2021/03/16 12:44:47;;;;;;;;;;;15.60;58.70;;;;;;4916950;29;20425;-55
2021/03/16 12:47:12;;;;;;;;;;;14.50;58.10;;;;;;4916693;29;20010;-55
2021/03/16 12:49:38;;;;;;;;;;;14.50;58.20;;;;;;4917027;29;19907;-54
2021/03/16 12:52:03;;;;;;;;;;;14.40;58.30;;;;;;4916131;29;20377;-55
2021/03/16 12:54:29;;;;;;;;;;;14.50;58.40;;;;;;4899588;29;20354;-55
2021/03/16 12:56:54;;;;;;;;;;;14.50;58.40;;;;;;4916672;29;20378;-55
2021/03/16 12:59:20;;;;;;;;;;;14.50;58.50;;;;;;4916773;29;19911;-55
2021/03/16 13:01:46;;;;;;;;;;;14.50;58.50;;;;;;4899536;29;19938;-53
2021/03/16 13:04:12;;;;;;;;;;;14.50;58.50;;;;;;4916641;29;20266;-56
2021/03/16 13:06:37;;;;;;;;;;;14.50;58.60;;;;;;4916850;29;19907;-55
2021/03/16 13:09:04;;;;;;;;;;;14.50;58.70;;;;;;4917111;29;19946;-55
2021/03/16 13:11:29;;;;;;;;;;;14.60;58.50;;;;;;4915915;29;20263;-54
2021/03/16 13:13:55;;;;;;;;;;;14.60;57.90;;;;;;4898754;29;20287;-53
2021/03/16 13:16:20;;;;;;;;;;;15.40;57.60;;;;;;4916189;29;19911;-51
2021/03/16 13:18:46;;;;;;;;;;;15.40;56.80;;;;;;4916339;29;19910;-54
2021/03/16 13:21:11;;;;;;;;;;;15.60;56.30;;;;;;4916567;29;19907;-51
2021/03/16 13:23:37;;;;;;;;;;;15.90;55.80;;;;;;4916516;29;19963;-52
2021/03/16 13:26:02;;;;;;;;;;;16.10;55.30;;;;;;4916250;29;20330;-52
2021/03/16 13:28:28;;;;;;;;;;;16.20;54.90;;;;;;4916079;29;19911;-52
2021/03/16 13:30:53;;;;;;;;;;;16.60;54.70;;;;;;4916173;29;19988;-55
2021/03/16 13:33:19;;;;;;;;;;;16.60;54.30;;;;;;4915126;29;19962;-53
2021/03/16 13:35:44;;;;;;;;;;;16.80;54.10;;;;;;4916392;29;19914;-55
2021/03/16 13:38:12;;;;;;;;;;;16.90;54.80;;;;;;4916119;29;20374;-54
2021/03/16 13:40:37;;;;;;;;;;;16.60;54.20;;;;;;4898872;29;19907;-55
2021/03/16 13:43:03;;;;;;;;;;;16.50;54.40;;;;;;4916213;29;19971;-53
2021/03/16 13:45:28;;;;;;;;;;;16.50;54.70;;;;;;4915907;29;19911;-52
2021/03/16 13:47:54;;;;;;;;;;;16.40;55.00;;;;;;4915985;29;19957;-53
2021/03/16 13:50:19;;;;;;;;;;;16.30;54.80;;;;;;4915867;29;19947;-55
2021/03/16 13:52:46;;;;;;;;;;;16.40;54.60;;;;;;4916099;29;19907;-54
2021/03/16 13:55:12;;;;;;;;;;;16.60;54.60;;;;;;4914637;29;19946;-54
2021/03/16 13:57:37;;;;;;;;;;;16.70;54.50;;;;;;4897054;29;19911;-55
2021/03/16 14:00:04;;;;;;;;;;;16.80;54.10;;;;;;4913703;29;20323;-51
2021/03/16 14:02:29;;;;;;;;;;;17.00;53.80;;;;;;4913787;29;19926;-53
2021/03/16 14:04:55;;;;;;;;;;;17.00;53.80;;;;;;4913270;29;19911;-54
2021/03/16 14:07:20;;;;;;;;;;;17.00;53.70;;;;;;4915644;28;19966;-50
2021/03/16 14:09:46;;;;;;;;;;;17.00;53.60;;;;;;4915442;29;20274;-55
2021/03/16 14:12:11;;;;;;;;;;;17.10;53.40;;;;;;4915955;29;19907;-51